createdAt,value
2022-10-22T00:00:07.362Z,1.20
2022-10-22T00:02:34.282Z,1.50
2022-10-22T00:05:01.109Z,1.20
2022-10-22T00:07:27.928Z,1.40
2022-10-22T00:09:54.760Z,1.03
2022-10-22T00:12:22.002Z,1.10
2022-10-22T00:14:49.512Z,1.13
2022-10-22T00:17:16.439Z,1.20
2022-10-22T00:19:43.287Z,1.17
2022-10-22T00:22:11.417Z,1.10
2022-10-22T00:24:39.594Z,0.87
2022-10-22T00:27:08.750Z,0.90
2022-10-22T00:29:35.637Z,0.90
2022-10-22T00:32:03.153Z,1.00
2022-10-22T00:34:29.967Z,1.30
2022-10-22T00:36:56.805Z,1.20
2022-10-22T00:39:25.613Z,1.20
2022-10-22T00:41:55.537Z,0.97
2022-10-22T00:45:02.927Z,1.00
2022-10-22T00:47:37.924Z,1.10
2022-10-22T00:50:09.959Z,1.20
2022-10-22T00:52:37.310Z,1.00
2022-10-22T00:55:05.196Z,0.93
2022-10-22T00:57:32.456Z,1.53
2022-10-22T00:59:59.283Z,1.00
2022-10-22T01:02:26.305Z,1.30
2022-10-22T01:04:53.085Z,0.90
2022-10-22T01:07:22.759Z,1.20
2022-10-22T01:10:24.529Z,1.23
2022-10-22T01:13:24.538Z,1.23
2022-10-22T01:16:22.255Z,1.10
2022-10-22T01:19:08.408Z,1.33
2022-10-22T01:21:44.419Z,1.30
2022-10-22T01:24:31.792Z,1.33
2022-10-22T01:27:43.965Z,1.70
2022-10-22T01:30:14.330Z,1.50
2022-10-22T01:32:50.303Z,1.60
2022-10-22T01:35:23.748Z,1.43
2022-10-22T01:37:57.353Z,1.77
2022-10-22T01:40:25.046Z,1.53
2022-10-22T01:43:07.982Z,1.70
2022-10-22T01:45:52.181Z,1.30
2022-10-22T01:48:51.731Z,1.70
2022-10-22T01:51:29.541Z,1.50
2022-10-22T01:54:14.225Z,1.90
2022-10-22T01:57:02.497Z,1.60
2022-10-22T01:59:54.768Z,1.70
2022-10-22T02:02:29.781Z,1.93
2022-10-22T02:05:08.396Z,1.73
2022-10-22T02:07:47.367Z,2.10
2022-10-22T02:10:15.910Z,2.13
2022-10-22T02:12:45.072Z,1.97
2022-10-22T02:15:14.792Z,2.00
2022-10-22T02:17:45.334Z,2.47
2022-10-22T02:20:33.477Z,1.80
2022-10-22T02:23:00.751Z,1.60
2022-10-22T02:25:37.112Z,1.70
2022-10-22T02:28:16.968Z,2.00
2022-10-22T02:30:51.360Z,1.87
2022-10-22T02:33:45.720Z,1.80
2022-10-22T02:36:14.557Z,1.90
2022-10-22T02:38:42.712Z,2.13
2022-10-22T02:41:09.981Z,2.23
2022-10-22T02:43:48.768Z,2.10
2022-10-22T02:46:15.588Z,2.43
2022-10-22T02:48:42.373Z,2.63
2022-10-22T02:51:09.139Z,2.23
2022-10-22T02:53:35.958Z,2.53
2022-10-22T02:56:03.165Z,2.60
2022-10-22T02:58:29.944Z,2.37
2022-10-22T03:00:56.742Z,2.70
2022-10-22T03:03:23.574Z,2.63
2022-10-22T03:05:53.502Z,2.33
2022-10-22T03:08:20.278Z,2.37
2022-10-22T03:10:47.072Z,2.20
2022-10-22T03:13:14.333Z,2.07
2022-10-22T03:15:41.126Z,2.40
2022-10-22T03:18:08.013Z,2.10
2022-10-22T03:20:35.350Z,2.10
2022-10-22T03:23:03.348Z,1.93
2022-10-22T03:25:34.379Z,2.10
2022-10-22T03:28:05.689Z,2.10
2022-10-22T03:30:32.510Z,1.80
2022-10-22T03:32:59.681Z,2.10
2022-10-22T03:35:26.646Z,2.20
2022-10-22T03:37:54.432Z,2.10
2022-10-22T03:40:21.540Z,1.80
2022-10-22T03:42:48.415Z,2.10
2022-10-22T03:45:15.269Z,2.20
2022-10-22T03:47:42.452Z,2.20
2022-10-22T03:50:10.155Z,1.70
2022-10-22T03:52:39.589Z,1.90
2022-10-22T03:55:07.274Z,1.90
2022-10-22T03:57:34.373Z,2.00
2022-10-22T04:00:01.221Z,2.07
2022-10-22T04:02:28.133Z,1.93
2022-10-22T04:04:54.918Z,2.00
2022-10-22T04:07:21.789Z,2.07
2022-10-22T04:09:48.569Z,1.70
2022-10-22T04:12:15.412Z,2.10
2022-10-22T04:14:42.187Z,1.60
2022-10-22T04:17:08.965Z,1.90
2022-10-22T04:19:35.840Z,1.40
2022-10-22T04:22:02.627Z,1.40
2022-10-22T04:24:31.894Z,1.50
2022-10-22T04:26:59.031Z,1.70
2022-10-22T04:29:27.060Z,1.60
2022-10-22T04:31:53.997Z,1.53
2022-10-22T04:34:20.912Z,1.60
2022-10-22T04:36:47.673Z,1.53
2022-10-22T04:39:15.194Z,2.10
2022-10-22T04:41:41.997Z,1.90
2022-10-22T04:44:12.271Z,2.17
2022-10-22T04:46:42.925Z,1.63
2022-10-22T04:49:09.727Z,2.00
2022-10-22T04:51:36.531Z,1.73
2022-10-22T04:54:04.592Z,1.67
2022-10-22T04:56:32.164Z,1.50
2022-10-22T04:59:06.117Z,1.67
2022-10-22T05:01:43.179Z,1.53
2022-10-22T05:04:16.692Z,1.20
2022-10-22T05:06:44.305Z,1.60
2022-10-22T05:09:19.769Z,1.40
2022-10-22T05:11:50.044Z,1.53
2022-10-22T05:14:23.589Z,1.33
2022-10-22T05:16:51.721Z,1.20
2022-10-22T05:19:30.825Z,1.33
2022-10-22T05:22:01.605Z,1.20
2022-10-22T05:24:30.090Z,1.10
2022-10-22T05:26:58.918Z,1.37
2022-10-22T05:29:26.612Z,0.97
2022-10-22T05:31:53.673Z,1.20
2022-10-22T05:34:20.472Z,1.10
2022-10-22T05:36:47.282Z,1.00
2022-10-22T05:39:14.099Z,0.93
2022-10-22T05:41:41.185Z,0.80
2022-10-22T05:44:07.973Z,1.37
2022-10-22T05:46:36.303Z,1.00
2022-10-22T05:49:06.822Z,1.20
2022-10-22T05:51:36.474Z,1.20
2022-10-22T05:54:06.411Z,1.00
2022-10-22T05:56:34.988Z,1.13
2022-10-22T06:01:37.773Z,1.07
2022-10-22T06:04:10.721Z,1.03
2022-10-22T06:06:43.214Z,1.07
2022-10-22T06:09:26.417Z,1.20
2022-10-22T06:11:53.465Z,1.00
2022-10-22T06:14:21.377Z,1.07
2022-10-22T06:16:49.058Z,1.00
2022-10-22T06:19:18.200Z,1.00
2022-10-22T06:21:45.711Z,1.30
2022-10-22T06:24:12.977Z,1.63
2022-10-22T06:26:41.016Z,2.30
2022-10-22T06:29:08.477Z,2.57
2022-10-22T06:31:39.258Z,1.90
2022-10-22T06:34:11.139Z,2.17
2022-10-22T06:36:38.507Z,1.90
2022-10-22T06:39:05.861Z,1.77
2022-10-22T06:41:32.637Z,3.77
2022-10-22T06:44:00.008Z,2.73
2022-10-22T06:46:27.278Z,2.90
2022-10-22T06:48:57.895Z,2.80
2022-10-22T06:51:26.177Z,2.50
2022-10-22T06:53:55.032Z,2.40
2022-10-22T06:56:26.425Z,2.53
2022-10-22T06:58:56.082Z,2.10
2022-10-22T07:01:27.872Z,2.23
2022-10-22T07:03:54.836Z,2.23
2022-10-22T07:06:23.968Z,1.67
2022-10-22T07:08:51.364Z,1.33
2022-10-22T07:11:23.561Z,1.50
2022-10-22T07:13:50.619Z,1.10
2022-10-22T07:16:18.474Z,1.40
2022-10-22T07:18:46.345Z,1.37
2022-10-22T07:21:16.147Z,1.20
2022-10-22T07:23:43.570Z,1.33
2022-10-22T07:26:14.582Z,1.37
2022-10-22T07:28:42.164Z,1.23
2022-10-22T07:31:11.677Z,1.20
2022-10-22T07:33:39.249Z,1.23
2022-10-22T07:36:09.248Z,1.40
2022-10-22T07:38:36.817Z,1.13
2022-10-22T07:41:04.148Z,1.00
2022-10-22T07:43:31.121Z,1.07
2022-10-22T07:45:59.524Z,1.10
2022-10-22T07:48:26.475Z,1.23
2022-10-22T07:50:53.273Z,1.20
2022-10-22T07:53:21.309Z,1.40
2022-10-22T07:55:50.340Z,1.70
2022-10-22T07:58:18.409Z,2.00
2022-10-22T08:00:45.654Z,1.30
2022-10-22T08:03:14.142Z,1.10
2022-10-22T08:05:43.643Z,1.07
2022-10-22T08:08:13.738Z,1.23
2022-10-22T08:10:41.005Z,1.00
2022-10-22T08:13:08.409Z,0.80
2022-10-22T08:15:36.112Z,0.83
2022-10-22T08:18:02.990Z,1.10
2022-10-22T08:20:29.817Z,0.87
2022-10-22T08:22:56.651Z,1.00
2022-10-22T08:25:23.576Z,0.87
2022-10-22T08:27:50.392Z,0.90
2022-10-22T08:30:17.592Z,0.97
2022-10-22T08:32:44.466Z,1.03
2022-10-22T08:35:14.177Z,1.00
2022-10-22T08:37:44.007Z,1.07
2022-10-22T08:40:23.930Z,0.90
2022-10-22T08:43:37.134Z,1.03
2022-10-22T08:46:16.765Z,1.10
2022-10-22T08:48:52.269Z,0.90
2022-10-22T08:51:26.608Z,1.00
2022-10-22T08:54:16.938Z,0.90
2022-10-22T08:56:49.849Z,1.13
2022-10-22T08:59:23.897Z,0.90
2022-10-22T09:01:53.973Z,0.73
2022-10-22T09:04:37.836Z,0.90
2022-10-22T09:07:04.789Z,0.80
2022-10-22T09:09:42.850Z,0.80
2022-10-22T09:12:19.326Z,0.70
2022-10-22T09:14:47.305Z,0.90
2022-10-22T09:17:33.761Z,0.90
2022-10-22T09:20:16.689Z,1.00
2022-10-22T09:23:15.646Z,0.80
2022-10-22T09:25:43.518Z,0.80
2022-10-22T09:28:10.417Z,0.60
2022-10-22T09:30:39.217Z,0.90
2022-10-22T09:33:28.023Z,0.80
2022-10-22T09:36:06.882Z,1.10
2022-10-22T09:38:40.580Z,0.60
2022-10-22T09:41:09.040Z,0.90
2022-10-22T09:43:36.396Z,0.67
2022-10-22T09:46:14.090Z,1.00
2022-10-22T09:49:12.067Z,0.83
2022-10-22T09:52:00.071Z,0.67
2022-10-22T09:54:42.523Z,0.50
2022-10-22T09:57:22.374Z,0.70
2022-10-22T09:59:51.368Z,0.67
2022-10-22T10:02:37.426Z,0.60
2022-10-22T10:05:06.572Z,0.50
2022-10-22T10:07:35.752Z,0.60
2022-10-22T10:10:17.052Z,0.60
2022-10-22T10:12:55.819Z,0.70
2022-10-22T10:15:47.824Z,0.93
2022-10-22T10:18:43.129Z,0.90
2022-10-22T10:21:32.057Z,0.70
2022-10-22T10:24:20.200Z,0.70
2022-10-22T10:26:59.025Z,0.80
2022-10-22T10:29:59.180Z,0.60
2022-10-22T10:32:53.884Z,0.80
2022-10-22T10:35:27.558Z,0.60
2022-10-22T10:38:42.476Z,0.87
2022-10-22T10:41:29.108Z,0.73
2022-10-22T10:44:28.521Z,0.80
2022-10-22T10:47:25.625Z,0.80
2022-10-22T10:50:01.621Z,0.80
2022-10-22T10:53:02.483Z,0.67
2022-10-22T10:55:41.309Z,0.60
2022-10-22T10:58:46.186Z,0.50
2022-10-22T11:01:58.114Z,0.60
2022-10-22T11:04:55.244Z,0.60
2022-10-22T11:07:34.746Z,0.70
2022-10-22T11:10:32.406Z,0.80
2022-10-22T11:13:29.555Z,0.50
2022-10-22T11:16:03.633Z,1.00
2022-10-22T11:18:40.743Z,1.10
2022-10-22T11:21:11.409Z,1.00
2022-10-22T11:24:11.213Z,1.00
2022-10-22T11:26:49.061Z,0.90
2022-10-22T11:29:22.956Z,0.70
2022-10-22T11:31:52.085Z,0.73
2022-10-22T11:34:43.713Z,0.70
2022-10-22T11:37:13.670Z,0.70
2022-10-22T11:39:54.136Z,0.70
2022-10-22T11:42:39.091Z,0.67
2022-10-22T11:45:14.099Z,0.90
2022-10-22T11:48:16.543Z,0.70
2022-10-22T11:51:02.363Z,0.80
2022-10-22T11:53:37.234Z,1.00
2022-10-22T11:56:06.971Z,0.77
2022-10-22T11:58:47.701Z,1.00
2022-10-22T12:01:29.723Z,0.83
2022-10-22T12:03:59.545Z,0.70
2022-10-22T12:06:28.770Z,0.70
2022-10-22T12:09:04.782Z,1.00
2022-10-22T12:11:47.662Z,0.60
2022-10-22T12:14:26.584Z,0.80
2022-10-22T12:16:57.968Z,1.03
2022-10-22T12:19:44.959Z,0.77
2022-10-22T12:22:24.311Z,0.80
2022-10-22T12:24:55.457Z,0.70
2022-10-22T12:27:26.054Z,0.80
2022-10-22T12:29:59.526Z,0.60
2022-10-22T12:32:39.784Z,0.63
2022-10-22T12:35:15.246Z,1.00
2022-10-22T12:37:42.489Z,0.63
2022-10-22T12:40:28.707Z,0.88
2022-10-22T12:43:03.035Z,0.82
2022-10-22T12:45:33.465Z,0.50
2022-10-22T12:48:07.210Z,0.60
2022-10-22T12:50:41.050Z,0.70
2022-10-22T12:53:35.791Z,0.63
2022-10-22T12:56:06.685Z,0.60
2022-10-22T12:58:45.950Z,0.67
2022-10-22T13:01:16.354Z,0.80
2022-10-22T13:03:49.792Z,0.70
2022-10-22T13:06:20.472Z,0.60
2022-10-22T13:09:00.163Z,0.70
2022-10-22T13:11:53.432Z,0.70
2022-10-22T13:14:34.413Z,0.70
2022-10-22T13:17:13.335Z,0.90
2022-10-22T13:19:49.755Z,0.90
2022-10-22T13:22:36.631Z,0.97
2022-10-22T13:25:19.426Z,0.70
2022-10-22T13:27:50.318Z,0.93
2022-10-22T13:30:34.067Z,0.73
2022-10-22T13:33:23.359Z,0.70
2022-10-22T13:35:50.203Z,0.63
2022-10-22T13:38:20.289Z,0.90
2022-10-22T13:40:47.478Z,0.80
2022-10-22T13:43:15.050Z,0.60
2022-10-22T13:45:42.132Z,0.70
2022-10-22T13:48:15.463Z,0.77
2022-10-22T13:50:42.578Z,0.98
2022-10-22T13:53:23.390Z,0.82
2022-10-22T13:55:50.481Z,0.70
2022-10-22T13:58:21.062Z,0.70
2022-10-22T14:00:52.302Z,1.00
2022-10-22T14:03:21.889Z,0.77
2022-10-22T14:05:49.526Z,0.70
2022-10-22T14:08:20.213Z,0.80
2022-10-22T14:10:47.458Z,0.80
2022-10-22T14:13:16.858Z,0.80
2022-10-22T14:15:46.965Z,0.50
2022-10-22T14:18:25.337Z,0.75
2022-10-22T14:20:58.473Z,0.80
2022-10-22T14:23:30.167Z,1.00
2022-10-22T14:25:58.821Z,0.90
2022-10-22T14:28:31.374Z,0.80
2022-10-22T14:30:58.664Z,1.00
2022-10-22T14:33:32.525Z,1.00
2022-10-22T14:36:02.979Z,0.93
2022-10-22T14:38:29.899Z,1.00
2022-10-22T14:40:57.940Z,1.33
2022-10-22T14:43:29.276Z,1.63
2022-10-22T14:45:56.137Z,0.98
2022-10-22T14:48:23.443Z,0.80
2022-10-22T14:50:50.711Z,0.90
2022-10-22T14:53:17.695Z,0.60
2022-10-22T14:55:48.980Z,0.98
2022-10-22T14:58:16.023Z,0.85
2022-10-22T15:00:43.571Z,1.30
2022-10-22T15:03:11.694Z,2.80
2022-10-22T15:05:45.366Z,3.40
2022-10-22T15:08:14.317Z,2.10
2022-10-22T15:10:41.689Z,1.40
2022-10-22T15:13:08.722Z,2.37
2022-10-22T15:15:39.490Z,3.10
2022-10-22T15:18:06.940Z,2.27
2022-10-22T15:20:33.814Z,20.50
2022-10-22T15:23:00.751Z,16.43
2022-10-22T15:25:28.593Z,8.43
2022-10-22T15:28:00.575Z,5.30
2022-10-22T15:30:31.962Z,3.10
2022-10-22T15:32:58.765Z,1.90
2022-10-22T15:35:28.532Z,1.80
2022-10-22T15:37:56.461Z,1.60
2022-10-22T15:40:23.225Z,1.43
2022-10-22T15:42:50.021Z,1.53
2022-10-22T15:45:16.967Z,1.57
2022-10-22T15:47:49.804Z,1.60
2022-10-22T15:50:17.207Z,1.43
2022-10-22T15:52:44.027Z,1.40
2022-10-22T15:57:43.289Z,1.07
2022-10-22T16:00:11.241Z,1.27
2022-10-22T16:02:38.028Z,0.80
2022-10-22T16:05:05.304Z,1.03
2022-10-22T16:07:32.082Z,1.10
2022-10-22T16:10:02.522Z,1.20
2022-10-22T16:12:29.431Z,1.13
2022-10-22T16:14:56.217Z,1.10
2022-10-22T16:17:23.456Z,1.10
2022-10-22T16:19:50.261Z,1.17
2022-10-22T16:22:17.088Z,1.03
2022-10-22T16:24:43.961Z,1.20
2022-10-22T16:27:10.893Z,1.13
2022-10-22T16:29:41.968Z,1.00
2022-10-22T16:32:08.926Z,1.00
2022-10-22T16:34:35.687Z,1.20
2022-10-22T16:37:02.568Z,1.00
2022-10-22T16:39:29.542Z,1.20
2022-10-22T16:41:56.373Z,1.40
2022-10-22T16:44:23.716Z,1.10
2022-10-22T16:46:50.508Z,1.10
2022-10-22T16:49:17.301Z,1.07
2022-10-22T16:51:44.105Z,1.20
2022-10-22T16:54:14.017Z,1.10
2022-10-22T16:56:41.073Z,1.10
2022-10-22T16:59:07.988Z,1.27
2022-10-22T17:01:38.125Z,1.20
2022-10-22T17:04:07.338Z,1.27
2022-10-22T17:06:34.308Z,1.43
2022-10-22T17:09:01.174Z,1.00
2022-10-22T17:11:30.179Z,1.20
2022-10-22T17:13:57.092Z,1.00
2022-10-22T17:16:24.934Z,1.27
2022-10-22T17:18:54.138Z,1.30
2022-10-22T17:21:22.381Z,1.33
2022-10-22T17:23:52.144Z,1.10
2022-10-22T17:26:22.745Z,2.13
2022-10-22T17:28:50.059Z,1.07
2022-10-22T17:31:24.416Z,1.10
2022-10-22T17:33:53.889Z,1.30
2022-10-22T17:36:22.941Z,1.27
2022-10-22T17:38:55.592Z,1.00
2022-10-22T17:41:26.869Z,0.80
2022-10-22T17:43:55.719Z,0.97
2022-10-22T17:46:28.733Z,0.93
2022-10-22T17:49:01.748Z,0.80
2022-10-22T17:51:30.487Z,0.93
2022-10-22T17:53:57.756Z,1.10
2022-10-22T17:56:27.964Z,1.20
2022-10-22T17:58:56.111Z,1.30
2022-10-22T18:01:29.466Z,1.50
2022-10-22T18:04:05.468Z,1.63
2022-10-22T18:06:33.070Z,2.30
2022-10-22T18:09:00.117Z,2.60
2022-10-22T18:11:28.522Z,2.03
2022-10-22T18:13:57.098Z,2.60
2022-10-22T18:16:25.458Z,2.50
2022-10-22T18:18:56.002Z,1.83
2022-10-22T18:21:26.843Z,2.40
2022-10-22T18:23:54.677Z,2.10
2022-10-22T18:26:25.823Z,2.23
2022-10-22T18:28:54.431Z,2.10
2022-10-22T18:31:27.817Z,2.50
2022-10-22T18:33:55.276Z,2.73
2022-10-22T18:36:25.433Z,2.50
2022-10-22T18:38:58.540Z,2.80
2022-10-22T18:41:27.212Z,2.47
2022-10-22T18:43:57.290Z,2.30
2022-10-22T18:46:25.380Z,2.80
2022-10-22T18:48:57.718Z,2.70
2022-10-22T18:51:30.483Z,2.40
2022-10-22T18:54:11.359Z,3.93
2022-10-22T18:56:44.809Z,3.70
2022-10-22T18:59:30.452Z,3.83
2022-10-22T19:02:00.468Z,5.73
2022-10-22T19:04:33.062Z,6.27
2022-10-22T19:06:59.939Z,5.23
2022-10-22T19:09:26.853Z,13.27
2022-10-22T19:11:53.991Z,6.90
2022-10-22T19:14:22.075Z,6.27
2022-10-22T19:16:49.918Z,9.23
2022-10-22T19:19:21.726Z,10.63
2022-10-22T19:21:49.422Z,10.67
2022-10-22T19:24:19.184Z,18.67
2022-10-22T19:26:47.826Z,16.47
2022-10-22T19:29:18.268Z,8.13
2022-10-22T19:31:46.323Z,6.27
2022-10-22T19:34:14.179Z,5.90
2022-10-22T19:36:41.194Z,8.20
2022-10-22T19:39:09.031Z,7.00
2022-10-22T19:41:35.976Z,5.10
2022-10-22T19:44:03.215Z,5.10
2022-10-22T19:46:32.886Z,4.90
2022-10-22T19:49:02.556Z,4.57
2022-10-22T19:51:31.736Z,5.83
2022-10-22T19:54:01.522Z,5.40
2022-10-22T19:56:29.769Z,6.07
2022-10-22T19:58:57.457Z,5.90
2022-10-22T20:01:24.928Z,5.87
2022-10-22T20:03:52.708Z,6.10
2022-10-22T20:06:20.105Z,6.03
2022-10-22T20:08:47.404Z,5.13
2022-10-22T20:11:24.834Z,5.23
2022-10-22T20:13:52.623Z,4.20
2022-10-22T20:16:24.250Z,3.50
2022-10-22T20:18:52.248Z,4.20
2022-10-22T20:21:20.911Z,5.37
2022-10-22T20:23:51.736Z,4.67
2022-10-22T20:26:19.720Z,4.10
2022-10-22T20:28:48.107Z,4.43
2022-10-22T20:31:19.758Z,5.10
2022-10-22T20:33:47.868Z,5.37
2022-10-22T20:36:20.393Z,6.00
2022-10-22T20:38:48.217Z,5.63
2022-10-22T20:41:24.493Z,6.43
2022-10-22T20:43:52.273Z,6.30
2022-10-22T20:46:29.660Z,7.30
2022-10-22T20:49:07.492Z,6.20
2022-10-22T20:51:36.780Z,5.37
2022-10-22T20:54:05.106Z,4.97
2022-10-22T20:56:32.327Z,5.13
2022-10-22T20:59:07.918Z,4.30
2022-10-22T21:01:46.814Z,3.30
2022-10-22T21:04:13.771Z,2.80
2022-10-22T21:06:42.751Z,3.90
2022-10-22T21:09:13.052Z,4.30
2022-10-22T21:11:41.873Z,4.07
2022-10-22T21:14:11.125Z,5.47
2022-10-22T21:16:42.320Z,5.93
2022-10-22T21:19:09.136Z,6.37
2022-10-22T21:21:35.903Z,6.93
2022-10-22T21:24:02.693Z,7.90
2022-10-22T21:26:29.741Z,6.80
2022-10-22T21:28:56.504Z,6.13
2022-10-22T21:31:26.198Z,5.33
2022-10-22T21:33:54.392Z,5.80
2022-10-22T21:36:23.565Z,5.20
2022-10-22T21:38:54.456Z,4.53
2022-10-22T21:41:24.261Z,3.80
2022-10-22T21:43:52.209Z,3.60
2022-10-22T21:46:22.440Z,3.90
2022-10-22T21:49:02.302Z,2.83
2022-10-22T21:51:32.322Z,2.80
2022-10-22T21:53:59.416Z,4.13
2022-10-22T21:56:29.865Z,5.97
2022-10-22T21:58:56.650Z,5.93
2022-10-22T22:01:23.914Z,6.67
2022-10-22T22:03:52.390Z,6.07
2022-10-22T22:06:22.985Z,4.27
2022-10-22T22:08:52.522Z,5.00
2022-10-22T22:11:24.602Z,6.57
2022-10-22T22:13:53.337Z,6.30
2022-10-22T22:16:28.091Z,6.37
2022-10-22T22:19:00.753Z,6.03
2022-10-22T22:21:28.453Z,6.17
2022-10-22T22:23:56.617Z,5.23
2022-10-22T22:26:29.674Z,6.20
2022-10-22T22:28:58.525Z,5.60
2022-10-22T22:31:32.122Z,4.83
2022-10-22T22:34:04.125Z,5.03
2022-10-22T22:36:37.260Z,5.57
2022-10-22T22:39:06.572Z,5.00
2022-10-22T22:41:34.274Z,5.30
2022-10-22T22:44:01.457Z,5.33
2022-10-22T22:46:28.338Z,4.57
2022-10-22T22:48:55.564Z,5.03
2022-10-22T22:51:22.376Z,4.63
2022-10-22T22:53:49.261Z,5.07
2022-10-22T22:56:27.609Z,4.17
2022-10-22T22:58:55.178Z,4.60
2022-10-22T23:01:29.060Z,4.30
2022-10-22T23:04:08.759Z,4.13
2022-10-22T23:06:37.657Z,4.50
2022-10-22T23:09:07.643Z,4.70
2022-10-22T23:11:34.763Z,3.70
2022-10-22T23:14:04.995Z,3.60
2022-10-22T23:16:36.703Z,3.93
2022-10-22T23:19:04.766Z,4.13
2022-10-22T23:21:35.916Z,3.70
2022-10-22T23:24:08.058Z,3.33
2022-10-22T23:26:38.776Z,3.17
2022-10-22T23:29:15.746Z,3.27
2022-10-22T23:31:44.115Z,3.10
2022-10-22T23:34:15.923Z,2.97
2022-10-22T23:36:43.176Z,2.90
2022-10-22T23:39:13.599Z,3.00
2022-10-22T23:41:40.544Z,3.40
2022-10-22T23:44:08.875Z,3.40
2022-10-22T23:46:35.920Z,2.93
2022-10-22T23:49:02.724Z,3.60
2022-10-22T23:51:29.518Z,3.40
2022-10-22T23:54:03.064Z,3.73
2022-10-22T23:56:30.265Z,3.33
2022-10-22T23:58:58.156Z,3.50
